Time;durP1;ratioP1;P1;durP2;ratioP2;P2;SDS_P1;SDS_P2;PMS_P1;PMS_P2;Temp;Humidity;BMP_temperature;BMP_pressure;BME280_temperature;BME280_humidity;BME280_pressure;Samples;Min_cycle;Max_cycle;Signal;HPM_P1;HPM_P2
2022/08/11 00:01:27;;;;;;;;;10.50;10.50;;;;;25.30;51.64;101461.91;6191658;22;45264;-84
2022/08/11 00:03:55;;;;;;;;;8.50;8.50;;;;;25.26;49.93;101466.84;6217853;22;45113;-84
2022/08/11 00:06:27;;;;;;;;;10.40;9.40;;;;;25.21;49.73;101473.88;6215023;22;44639;-85
2022/08/11 00:08:54;;;;;;;;;11.40;11.40;;;;;25.17;50.34;101465.22;6188548;22;44735;-83
2022/08/11 00:11:21;;;;;;;;;11.25;9.50;;;;;25.13;51.46;101469.31;6218324;22;44757;-84
2022/08/11 00:13:48;;;;;;;;;9.00;9.00;;;;;25.10;51.14;101472.41;6217267;22;45209;-84
2022/08/11 00:16:17;;;;;;;;;10.00;9.20;;;;;25.09;52.37;101467.97;6214958;22;44818;-83
2022/08/11 00:18:51;;;;;;;;;11.20;10.40;;;;;25.06;50.85;101473.75;6214067;22;44643;-84
2022/08/11 00:21:19;;;;;;;;;9.50;9.25;;;;;25.01;51.65;101466.16;6188250;22;45189;-83
2022/08/11 00:23:51;;;;;;;;;11.25;9.50;;;;;24.97;51.39;101472.97;6215374;22;45107;-84
2022/08/11 00:26:18;;;;;;;;;9.00;9.00;;;;;24.91;52.10;101465.53;6187011;22;45371;-84
2022/08/11 00:28:43;;;;;;;;;9.40;8.40;;;;;24.87;52.26;101465.03;6214678;22;44682;-84
2022/08/11 00:31:23;;;;;;;;;8.75;6.75;;;;;24.81;52.70;101467.63;6214604;22;45491;-83
2022/08/11 00:33:50;;;;;;;;;9.00;9.00;;;;;24.74;53.00;101470.19;6185696;22;46864;-84
2022/08/11 00:36:18;;;;;;;;;9.80;8.60;;;;;24.64;52.42;101466.00;6213474;22;44711;-83
2022/08/11 00:38:48;;;;;;;;;8.80;8.80;;;;;24.56;53.86;101472.31;6213053;22;44588;-84
2022/08/11 00:41:31;;;;;;;;;10.00;10.00;;;;;24.50;53.59;101473.03;6212823;22;45196;-83
2022/08/11 00:43:59;;;;;;;;;11.40;9.20;;;;;24.45;52.66;101468.13;6213036;22;45616;-84
2022/08/11 00:46:24;;;;;;;;;9.60;8.20;;;;;24.42;54.64;101476.63;6187304;22;44715;-83
2022/08/11 00:49:20;;;;;;;;;8.00;8.00;;;;;24.38;53.41;101478.00;6215409;22;45251;-83
2022/08/11 00:51:48;;;;;;;;;8.50;8.50;;;;;24.32;53.93;101479.53;6212863;22;45316;-84
2022/08/11 00:54:46;;;;;;;;;9.00;9.00;;;;;24.24;55.13;101474.09;6212472;22;45057;-84
2022/08/11 00:57:35;;;;;;;;;8.00;8.00;;;;;24.15;55.54;101475.13;6187085;22;45205;-83
2022/08/11 01:00:22;;;;;;;;;12.25;10.50;;;;;24.06;56.42;101474.31;6216504;22;45410;-84
2022/08/11 01:02:47;;;;;;;;;10.00;9.00;;;;;24.04;55.26;101473.66;6216672;22;45185;-83
2022/08/11 01:05:36;;;;;;;;;11.25;10.00;;;;;24.01;55.06;101471.25;6212713;22;45186;-84
2022/08/11 01:08:23;;;;;;;;;11.20;9.00;;;;;23.98;56.91;101471.63;6211829;22;44615;-84
2022/08/11 01:11:36;;;;;;;;;9.60;9.60;;;;;23.92;57.29;101475.00;6212635;22;45186;-84
2022/08/11 01:14:28;;;;;;;;;8.50;8.50;;;;;23.89;56.02;101474.53;6150586;23;45385;-86
2022/08/11 01:17:35;;;;;;;;;10.75;10.75;;;;;23.84;57.02;101473.16;6153831;23;45556;-85
2022/08/11 01:20:18;;;;;;;;;8.80;8.80;;;;;23.82;56.75;101477.06;6139552;23;45324;-85
2022/08/11 01:22:44;;;;;;;;;9.60;8.20;;;;;23.79;57.74;101469.28;6152161;23;44689;-85
2022/08/11 01:25:32;;;;;;;;;11.50;9.50;;;;;23.77;57.25;101471.31;6152486;23;45271;-85
2022/08/11 01:28:35;;;;;;;;;7.25;7.00;;;;;23.71;57.79;101461.13;6152333;23;45052;-85
2022/08/11 01:31:19;;;;;;;;;8.20;8.20;;;;;23.62;57.31;101465.69;6157429;23;44798;-85
2022/08/11 01:34:07;;;;;;;;;7.40;7.40;;;;;23.52;57.53;101474.00;6162599;23;44762;-85
2022/08/11 01:36:47;;;;;;;;;9.00;9.00;;;;;23.44;57.71;101465.84;6160011;23;44766;-86
2022/08/11 01:39:30;;;;;;;;;5.20;5.20;;;;;23.40;57.01;101469.91;6156906;23;45323;-85
2022/08/11 01:45:41;;;;;;;;;19.50;18.25;;;;;23.36;58.04;101465.00;6096114;23;44707;-85
2022/08/11 01:48:41;;;;;;;;;7.50;7.50;;;;;23.36;57.48;101468.56;6098108;23;44990;-85
2022/08/11 01:51:36;;;;;;;;;7.75;7.75;;;;;23.34;57.68;101470.59;6124890;23;45147;-84
2022/08/11 01:54:04;;;;;;;;;8.60;8.60;;;;;23.33;57.50;101471.63;6099556;23;45210;-85
2022/08/11 01:56:45;;;;;;;;;9.25;8.25;;;;;23.28;56.97;101473.97;6097299;23;44707;-85
2022/08/11 01:59:17;;;;;;;;;9.00;9.00;;;;;23.25;57.49;101471.59;6093354;23;45421;-85
2022/08/11 02:02:17;;;;;;;;;8.25;8.25;;;;;23.22;58.27;101466.53;6094785;23;45193;-85
2022/08/11 02:05:18;;;;;;;;;8.40;8.00;;;;;23.17;59.62;101469.75;6095926;23;44744;-84
2022/08/11 02:08:32;;;;;;;;;10.75;10.75;;;;;23.14;58.73;101478.19;6070324;23;45382;-86
2022/08/11 02:11:35;;;;;;;;;7.25;7.25;;;;;23.15;57.75;101468.19;5919589;24;45222;-85
2022/08/11 02:14:11;;;;;;;;;11.50;9.25;;;;;23.16;60.75;101461.75;5866945;24;45351;-86
2022/08/11 02:17:09;;;;;;;;;7.20;7.20;;;;;23.17;61.06;101469.75;5869526;24;44806;-84
2022/08/11 02:26:39;;;;;;;;;10.00;8.00;;;;;22.96;60.28;101470.19;5838904;24;45277;-84
2022/08/11 02:29:32;;;;;;;;;9.60;9.60;;;;;22.89;60.09;101471.03;5831800;24;44886;-85
2022/08/11 02:34:43;;;;;;;;;11.25;9.00;;;;;22.76;60.11;101464.16;5892862;24;45224;-85
2022/08/11 02:37:17;;;;;;;;;8.00;8.00;;;;;22.73;60.67;101466.38;5893833;24;45034;-84
2022/08/11 02:39:56;;;;;;;;;2.00;2.00;;;;;22.69;61.31;101473.13;5895478;24;45208;-84
2022/08/11 02:42:39;;;;;;;;;7.50;7.50;;;;;22.66;60.33;101462.63;5895362;24;45315;-84
2022/08/11 02:45:30;;;;;;;;;7.00;7.00;;;;;22.62;61.17;101453.13;5873572;24;44845;-84
2022/08/11 02:51:07;;;;;;;;;5.40;5.00;;;;;22.57;60.15;101459.03;6065679;23;44752;-85
2022/08/11 02:53:51;;;;;;;;;10.00;7.80;;;;;22.61;60.78;101467.69;6062947;23;44708;-85
2022/08/11 02:56:51;;;;;;;;;8.25;7.75;;;;;22.60;61.41;101466.00;6063438;23;44744;-85
2022/08/11 03:02:18;;;;;;;;;9.40;9.00;;;;;22.56;61.54;101455.47;6186469;23;44672;-85
2022/08/11 03:04:53;;;;;;;;;8.80;8.00;;;;;22.54;62.08;101456.66;6164048;23;44832;-85
2022/08/11 03:07:51;;;;;;;;;4.25;4.00;;;;;22.57;61.69;101456.31;6193603;23;44735;-85
2022/08/11 03:10:22;;;;;;;;;9.25;9.00;;;;;22.58;64.69;101455.31;6093904;23;45439;-85
2022/08/11 03:19:13;;;;;;;;;8.75;8.75;;;;;22.58;62.28;101455.31;6093064;23;44803;-84
2022/08/11 03:21:50;;;;;;;;;9.25;8.75;;;;;22.54;61.10;101451.25;6094023;23;45325;-85
2022/08/11 03:24:28;;;;;;;;;8.40;8.40;;;;;22.53;63.48;101447.69;6094487;23;45288;-85
2022/08/11 03:26:59;;;;;;;;;8.25;8.25;;;;;22.57;63.67;101449.03;6093868;23;44702;-85
2022/08/11 03:29:42;;;;;;;;;8.00;8.00;;;;;22.62;61.89;101450.41;6095706;23;45318;-85
2022/08/11 03:32:34;;;;;;;;;11.25;9.50;;;;;22.69;61.37;101455.03;6101249;23;45369;-85
2022/08/11 03:35:04;;;;;;;;;7.60;7.60;;;;;22.75;61.90;101451.66;6101194;23;44679;-85
2022/08/11 03:37:49;;;;;;;;;11.00;9.60;;;;;22.82;62.34;101452.69;6098136;23;44675;-85
2022/08/11 03:41:41;;;;;;;;;7.50;7.50;;;;;22.82;62.13;101455.41;6094498;23;45181;-85
2022/08/11 03:43:08;;;;;;;;;8.75;6.00;;;;;22.88;59.11;101461.19;6092630;23;45191;-85
2022/08/11 03:46:03;;;;;;;;;9.60;9.60;;;;;22.92;59.66;101457.13;6092357;23;44849;-85
2022/08/11 03:48:42;;;;;;;;;10.20;10.20;;;;;22.92;61.54;101458.00;6216156;22;45355;-84
2022/08/11 03:51:22;;;;;;;;;10.00;9.00;;;;;22.91;61.58;101461.69;6219799;22;45159;-84
2022/08/11 03:54:08;;;;;;;;;9.75;7.50;;;;;22.93;61.69;101453.44;6192210;22;46424;-85
2022/08/11 03:56:59;;;;;;;;;11.00;9.20;;;;;22.92;60.16;101458.00;6228092;22;44759;-84
2022/08/11 03:59:50;;;;;;;;;10.60;10.60;;;;;22.90;60.38;101459.16;6225218;22;44747;-83
2022/08/11 04:02:33;;;;;;;;;9.75;9.75;;;;;22.89;59.71;101454.78;6225706;22;44722;-84
2022/08/11 04:05:37;;;;;;;;;10.25;9.50;;;;;22.89;59.70;101446.63;6219521;22;45211;-84
2022/08/11 04:08:03;;;;;;;;;9.80;8.00;;;;;22.90;60.80;101445.63;6189882;22;44695;-86
2022/08/11 04:11:12;;;;;;;;;11.00;9.25;;;;;22.89;60.04;101450.19;6189956;22;44758;-84
2022/08/11 04:13:57;;;;;;;;;10.50;9.50;;;;;22.89;59.54;101454.78;6209359;22;44654;-85
2022/08/11 04:16:40;;;;;;;;;8.00;8.00;;;;;22.84;60.40;101453.38;6220153;22;45226;-84
2022/08/11 04:19:59;;;;;;;;;7.00;7.00;;;;;22.82;60.98;101452.69;6218424;22;44742;-84
2022/08/11 04:22:54;;;;;;;;;8.60;8.60;;;;;22.80;60.83;101446.56;6191999;22;45045;-86
2022/08/11 04:25:25;;;;;;;;;10.25;8.75;;;;;22.78;61.25;101454.03;6217064;22;44712;-85
2022/08/11 04:28:11;;;;;;;;;9.75;8.25;;;;;22.76;61.62;101458.75;6191010;22;46493;-85
2022/08/11 04:31:07;;;;;;;;;8.80;6.80;;;;;22.68;62.56;101456.03;6218105;22;45260;-85
2022/08/11 04:34:14;;;;;;;;;10.75;10.00;;;;;22.65;61.30;101460.94;6222410;22;44734;-86
2022/08/11 04:40:00;;;;;;;;;8.00;8.00;;;;;22.55;62.58;101458.34;6224647;22;45220;-87
2022/08/11 04:45:53;;;;;;;;;10.00;10.00;;;;;22.42;63.68;101452.53;6219845;22;45213;-86
2022/08/11 05:08:00;;;;;;;;;9.80;9.80;;;;;23.22;61.60;101463.81;6220932;22;45170;-86
2022/08/11 05:10:50;;;;;;;;;9.60;9.60;;;;;23.31;61.10;101465.53;6193080;22;44809;-86
2022/08/11 05:36:50;;;;;;;;;12.75;9.75;;;;;24.71;57.00;101486.88;6152913;23;45134;-86
2022/08/11 05:56:16;;;;;;;;;10.60;9.40;;;;;25.97;53.47;101499.28;6179464;22;45311;-85
2022/08/11 05:58:44;;;;;;;;;9.00;9.00;;;;;26.13;52.85;101499.97;6214559;22;44738;-84
2022/08/11 06:01:13;;;;;;;;;7.00;6.40;;;;;26.19;50.28;101503.81;6213455;22;45549;-84
2022/08/11 06:06:28;;;;;;;;;9.20;9.00;;;;;26.27;50.24;101500.16;6215350;22;44728;-85
2022/08/11 06:08:58;;;;;;;;;7.75;7.75;;;;;26.43;50.31;101501.88;6214763;22;44738;-84
2022/08/11 06:11:25;;;;;;;;;8.00;8.00;;;;;26.52;49.05;101507.06;6219803;22;45229;-84
2022/08/11 06:13:51;;;;;;;;;9.20;9.20;;;;;26.72;49.50;101506.47;6221690;22;45264;-86
2022/08/11 06:16:22;;;;;;;;;8.40;7.00;;;;;26.83;49.14;101505.97;6220561;22;44790;-86
2022/08/11 06:18:48;;;;;;;;;9.75;9.75;;;;;27.03;48.46;101504.34;6222739;22;44766;-87
2022/08/11 06:21:16;;;;;;;;;8.00;8.00;;;;;27.08;47.80;101510.13;6217552;22;45240;-87
2022/08/11 06:23:43;;;;;;;;;9.40;7.80;;;;;27.07;46.75;101508.38;6216328;22;45302;-85
2022/08/11 06:26:10;;;;;;;;;10.40;8.40;;;;;26.94;47.38;101513.69;6219480;22;44735;-86
2022/08/11 06:28:38;;;;;;;;;10.00;7.00;;;;;26.97;46.93;101518.75;6221572;22;44735;-86
2022/08/11 06:31:17;;;;;;;;;8.20;8.20;;;;;26.98;47.44;101514.13;6191107;22;46570;-86
2022/08/11 06:34:04;;;;;;;;;7.80;7.80;;;;;27.14;47.25;101509.34;6216372;22;44755;-86
2022/08/11 06:36:54;;;;;;;;;8.80;7.00;;;;;27.25;45.46;101515.31;6188181;22;44780;-86
2022/08/11 06:39:39;;;;;;;;;8.60;8.60;;;;;27.19;47.52;101513.38;6218012;22;44858;-87
2022/08/11 06:42:13;;;;;;;;;9.00;8.80;;;;;27.33;46.74;101520.66;6218163;22;45048;-86
2022/08/11 06:45:00;;;;;;;;;8.20;8.00;;;;;27.41;45.92;101515.94;6218524;22;45235;-86
2022/08/11 06:47:26;;;;;;;;;8.40;8.00;;;;;27.43;45.52;101518.44;6217256;22;44711;-86
2022/08/11 06:52:45;;;;;;;;;9.20;9.20;;;;;27.57;45.58;101523.00;6215859;22;45041;-87
2022/08/11 07:00:26;;;;;;;;;8.00;7.00;;;;;27.57;44.93;101506.63;6215809;22;44698;-85
2022/08/11 07:00:48;;;;;;;;;9.00;7.80;;;;;27.60;45.51;101519.88;6221757;22;44580;-86
2022/08/11 07:03:18;;;;;;;;;8.60;7.20;;;;;27.52;45.07;101522.75;6219625;22;45235;-85
2022/08/11 07:06:13;;;;;;;;;11.60;9.00;;;;;27.41;45.80;101518.66;6215179;22;44682;-86
2022/08/11 07:17:48;;;;;;;;;9.80;8.60;;;;;26.99;46.04;101513.97;6185175;23;44632;-87
2022/08/11 07:28:59;;;;;;;;;9.60;9.60;;;;;26.96;46.94;101519.78;6186144;23;44611;-85
2022/08/11 07:31:27;;;;;;;;;9.40;6.80;;;;;26.90;46.48;101524.13;6187801;23;44738;-86
2022/08/11 07:34:14;;;;;;;;;10.25;10.25;;;;;26.93;47.65;101520.16;6189825;23;44695;-86
2022/08/11 07:36:43;;;;;;;;;8.60;8.60;;;;;26.95;47.02;101511.81;6189449;23;45348;-85
2022/08/11 07:39:19;;;;;;;;;9.00;9.00;;;;;26.80;47.38;101509.94;6188998;23;44601;-85
2022/08/11 07:41:46;;;;;;;;;8.80;8.80;;;;;26.87;47.48;101515.47;6191059;23;44770;-86
2022/08/11 07:44:15;;;;;;;;;10.50;9.00;;;;;27.06;47.64;101514.03;6161212;23;44885;-85
2022/08/11 07:52:33;;;;;;;;;0.60;0.60;;;;;27.14;47.19;101514.78;6193912;23;44560;-85
2022/08/11 07:55:06;;;;;;;;;5.00;5.00;;;;;27.13;47.52;101506.81;6194739;23;45082;-86
2022/08/11 08:19:43;;;;;;;;;9.80;8.40;;;;;28.36;46.15;101500.97;6184299;23;44991;-84
2022/08/11 08:22:14;;;;;;;;;9.40;8.20;;;;;28.31;45.60;101497.13;6183939;23;44611;-84
2022/08/11 08:24:40;;;;;;;;;7.00;7.00;;;;;28.43;46.71;101501.00;6185043;22;44792;-86
2022/08/11 08:27:08;;;;;;;;;9.40;9.40;;;;;28.56;45.84;101503.81;6184427;23;45249;-84
2022/08/11 08:32:21;;;;;;;;;9.60;9.60;;;;;28.62;45.08;101505.72;6190555;23;44738;-84
2022/08/11 08:34:49;;;;;;;;;7.25;7.25;;;;;28.69;45.47;101500.31;6184441;23;44819;-84
2022/08/11 08:37:18;;;;;;;;;10.25;9.00;;;;;28.77;45.34;101496.53;6186234;23;44779;-85
2022/08/11 08:39:45;;;;;;;;;8.60;8.60;;;;;28.80;45.14;101498.88;6192648;23;45117;-84
2022/08/11 08:42:16;;;;;;;;;8.80;7.00;;;;;28.87;44.75;101503.34;6189700;23;44733;-84
2022/08/11 08:44:45;;;;;;;;;9.20;7.20;;;;;28.73;44.60;101498.03;6187954;23;44659;-84
2022/08/11 08:47:15;;;;;;;;;7.25;7.25;;;;;28.81;44.47;101497.81;6184323;23;44802;-84
2022/08/11 08:49:48;;;;;;;;;9.40;7.80;;;;;28.77;44.60;101499.28;6183941;23;45138;-85
2022/08/11 08:52:18;;;;;;;;;6.40;6.40;;;;;28.72;44.36;101497.19;6182543;23;45397;-84
2022/08/11 08:54:47;;;;;;;;;9.00;9.00;;;;;28.76;44.69;101500.31;6184011;23;44656;-84
2022/08/11 08:57:16;;;;;;;;;9.25;9.25;;;;;28.89;44.29;101492.19;6183182;23;44754;-84
2022/08/11 08:59:47;;;;;;;;;9.80;9.00;;;;;28.97;44.51;101507.63;6183854;23;45058;-83
2022/08/11 09:02:13;;;;;;;;;7.00;7.00;;;;;29.10;44.10;101502.16;6183693;23;44742;-84
2022/08/11 09:04:43;;;;;;;;;10.00;10.00;;;;;29.07;43.99;101502.59;6184358;23;45210;-84
2022/08/11 09:07:11;;;;;;;;;7.20;7.20;;;;;29.27;43.78;101508.13;6183799;23;44715;-84
2022/08/11 09:09:43;;;;;;;;;7.20;7.20;;;;;29.47;43.79;101506.25;6193026;22;46857;-85
2022/08/11 09:12:10;;;;;;;;;9.00;9.00;;;;;29.53;43.32;101501.81;6218319;22;44598;-84
2022/08/11 09:17:26;;;;;;;;;8.60;7.60;;;;;29.83;42.99;101496.81;6218897;22;44759;-85
2022/08/11 09:19:57;;;;;;;;;8.00;7.40;;;;;29.94;43.54;101494.28;6214875;22;45208;-84
2022/08/11 09:27:55;;;;;;;;;6.25;6.25;;;;;30.12;42.19;101487.28;6217056;22;44869;-84
2022/08/11 09:30:26;;;;;;;;;6.40;6.40;;;;;30.28;41.92;101489.63;6215390;22;45037;-83
2022/08/11 09:32:59;;;;;;;;;7.20;5.40;;;;;30.47;41.55;101485.16;6217118;22;44767;-86
2022/08/11 09:35:30;;;;;;;;;6.60;6.60;;;;;30.64;40.71;101480.00;6218733;22;44676;-85
2022/08/11 09:40:45;;;;;;;;;7.20;7.20;;;;;30.73;38.46;101470.50;6213775;22;44914;-82
2022/08/11 09:45:59;;;;;;;;;4.00;4.00;;;;;30.79;36.29;101477.84;6219170;22;44807;-86
2022/08/11 09:48:27;;;;;;;;;6.80;6.00;;;;;30.89;37.12;101478.22;6219927;22;44777;-87
2022/08/11 09:50:57;;;;;;;;;9.20;8.40;;;;;30.92;37.09;101477.78;6221157;22;45172;-86
2022/08/11 09:53:25;;;;;;;;;6.20;5.00;;;;;30.91;36.58;101473.38;6219441;22;44674;-86
2022/08/11 09:55:52;;;;;;;;;7.00;5.60;;;;;31.00;36.86;101478.63;6189976;22;45222;-86
2022/08/11 09:58:18;;;;;;;;;6.25;6.25;;;;;31.13;36.05;101479.34;6219040;22;44773;-85
2022/08/11 10:00:56;;;;;;;;;7.20;6.60;;;;;31.00;34.37;101476.72;6224529;22;44960;-87
2022/08/11 10:03:25;;;;;;;;;6.20;6.20;;;;;31.10;35.15;101474.31;6220448;22;44759;-87
2022/08/11 10:08:43;;;;;;;;;6.00;6.00;;;;;30.89;33.71;101469.16;6216988;22;44660;-86
2022/08/11 10:11:12;;;;;;;;;5.80;5.80;;;;;30.68;33.57;101465.63;6188301;22;46947;-87
2022/08/11 10:16:33;;;;;;;;;6.80;6.60;;;;;31.02;34.61;101466.34;6215451;22;44775;-87
2022/08/11 10:19:01;;;;;;;;;7.00;7.00;;;;;31.16;34.70;101459.72;6189003;22;45121;-89
2022/08/11 10:21:42;;;;;;;;;7.80;7.80;;;;;31.09;33.70;101460.81;6191999;22;46902;-85
2022/08/11 10:27:01;;;;;;;;;6.60;6.60;;;;;30.97;33.38;101450.53;6222034;22;44539;-88
2022/08/11 10:35:17;;;;;;;;;7.40;7.00;;;;;31.37;32.22;101450.28;6218718;22;44710;-87
2022/08/11 10:37:44;;;;;;;;;7.40;7.40;;;;;31.47;31.83;101441.53;6190426;22;44605;-87
2022/08/11 10:40:14;;;;;;;;;5.00;4.40;;;;;31.52;31.75;101438.13;6188880;22;44781;-84
2022/08/11 10:48:10;;;;;;;;;8.80;8.80;;;;;31.59;31.27;101427.94;6220035;22;45246;-85
2022/08/11 10:58:55;;;;;;;;;6.80;6.80;;;;;31.63;30.88;101430.00;6220589;22;44664;-85
2022/08/11 11:01:25;;;;;;;;;9.25;9.25;;;;;31.72;31.26;101430.56;6191209;22;44823;-85
2022/08/11 11:03:56;;;;;;;;;8.40;8.40;;;;;31.83;31.16;101423.53;6214852;22;45509;-84
2022/08/11 11:06:34;;;;;;;;;10.40;8.20;;;;;31.85;30.77;101429.63;6215137;22;44834;-86
2022/08/11 11:09:15;;;;;;;;;7.80;5.20;;;;;31.70;29.99;101425.28;6215212;22;45133;-85
2022/08/11 11:20:42;;;;;;;;;10.00;8.80;;;;;31.71;30.46;101402.22;6214041;22;44699;-85
2022/08/11 11:23:27;;;;;;;;;9.00;7.75;;;;;31.89;31.01;101401.44;6213503;22;44851;-87
2022/08/11 11:26:26;;;;;;;;;8.20;8.20;;;;;32.08;31.15;101382.22;6187603;22;45240;-86
2022/08/11 11:29:19;;;;;;;;;8.00;8.00;;;;;32.13;30.80;101379.63;6219007;22;44800;-87
2022/08/11 11:31:57;;;;;;;;;10.20;9.00;;;;;32.17;30.88;101386.34;6222269;22;45288;-86
2022/08/11 11:34:41;;;;;;;;;9.00;9.00;;;;;32.18;30.40;101383.34;6217685;22;44897;-84
2022/08/11 11:37:07;;;;;;;;;7.40;7.40;;;;;32.01;30.46;101398.81;6216646;22;44969;-87
2022/08/11 11:39:35;;;;;;;;;10.80;10.00;;;;;32.06;31.12;101387.09;6216761;22;44822;-86
2022/08/11 11:42:03;;;;;;;;;21.75;19.00;;;;;32.24;30.69;101384.34;6216141;22;44626;-85
2022/08/11 11:44:30;;;;;;;;;8.60;7.40;;;;;32.30;30.85;101383.44;6215116;22;44822;-81
2022/08/11 11:46:57;;;;;;;;;8.20;8.20;;;;;32.44;30.47;101382.19;6214940;22;45192;-86
2022/08/11 11:49:25;;;;;;;;;8.20;8.20;;;;;32.36;30.27;101388.03;6217331;22;44774;-90
2022/08/11 11:51:52;;;;;;;;;4.80;4.80;;;;;32.34;29.86;101379.13;6192025;22;44631;-87
2022/08/11 11:54:27;;;;;;;;;8.75;7.75;;;;;32.36;29.19;101376.16;6190825;22;44904;-89
2022/08/11 11:56:54;;;;;;;;;7.20;7.20;;;;;32.32;29.49;101380.44;6216616;22;44938;-87
2022/08/11 12:02:08;;;;;;;;;8.20;8.20;;;;;32.46;30.13;101370.97;6218623;22;44725;-89
2022/08/11 12:04:36;;;;;;;;;9.25;9.25;;;;;32.47;28.98;101369.91;6193209;22;44858;-88
2022/08/11 12:09:49;;;;;;;;;8.80;8.80;;;;;32.21;29.72;101368.31;6237249;22;44659;-88
2022/08/11 12:15:00;;;;;;;;;6.25;4.75;;;;;32.05;29.51;101363.41;6229567;22;44569;-88
2022/08/11 12:17:25;;;;;;;;;6.60;6.60;;;;;32.07;29.26;101361.31;6227896;22;44964;-88
2022/08/11 12:19:52;;;;;;;;;8.00;8.00;;;;;31.99;28.54;101363.28;6228048;22;44706;-88
2022/08/11 12:27:48;;;;;;;;;9.75;9.75;;;;;32.08;27.82;101358.31;6232287;22;45021;-88
2022/08/11 12:30:14;;;;;;;;;5.00;5.00;;;;;32.21;28.73;101355.41;6232998;22;44702;-88
2022/08/11 12:32:42;;;;;;;;;8.00;8.00;;;;;32.34;28.14;101357.13;6235064;22;44648;-87
2022/08/11 12:35:08;;;;;;;;;8.00;6.50;;;;;32.44;27.86;101345.59;6235119;22;44691;-87
2022/08/11 12:37:44;;;;;;;;;6.00;5.50;;;;;32.57;28.26;101342.66;6224739;22;45084;-89
2022/08/11 12:45:57;;;;;;;;;9.75;8.50;;;;;32.65;27.91;101344.25;6222502;22;44611;-89
2022/08/11 12:54:05;;;;;;;;;9.00;9.00;;;;;32.87;27.95;101314.25;6224292;22;44733;-89
2022/08/11 13:05:11;;;;;;;;;8.00;6.20;;;;;33.20;28.23;101322.84;6226951;22;44789;-88
2022/08/11 13:07:39;;;;;;;;;8.00;8.00;;;;;33.06;27.21;101304.88;6202683;22;44851;-89
2022/08/11 13:10:08;;;;;;;;;8.80;8.80;;;;;33.18;27.15;101316.75;6225266;22;45054;-88
2022/08/11 13:12:47;;;;;;;;;10.00;9.00;;;;;33.30;27.25;101321.41;6221938;22;44718;-89
2022/08/11 13:15:20;;;;;;;;;10.20;8.60;;;;;33.44;28.13;101309.94;6219701;22;44666;-89
2022/08/11 13:17:52;;;;;;;;;8.40;8.40;;;;;33.48;27.67;101313.06;6225914;22;44806;-89
2022/08/11 13:20:20;;;;;;;;;8.40;8.40;;;;;33.52;27.39;101313.44;6202610;22;45432;-89
2022/08/11 13:22:48;;;;;;;;;7.80;7.80;;;;;33.36;26.92;101315.78;6220011;22;44650;-89
2022/08/11 13:25:17;;;;;;;;;7.80;7.80;;;;;33.49;27.37;101315.56;6216971;22;44592;-88
2022/08/11 13:27:45;;;;;;;;;8.75;8.25;;;;;33.72;27.71;101311.13;6190429;22;44755;-91
2022/08/11 13:32:59;;;;;;;;;8.00;8.00;;;;;33.83;26.24;101309.41;6217615;22;44657;-88
2022/08/11 13:35:29;;;;;;;;;8.20;7.20;;;;;33.66;26.98;101304.66;6193778;22;44628;-89
2022/08/11 13:37:56;;;;;;;;;7.00;7.00;;;;;33.62;27.53;101308.97;6220585;22;45323;-88
2022/08/11 13:40:24;;;;;;;;;9.00;7.40;;;;;33.66;27.19;101304.66;6218335;22;45135;-89
2022/08/11 13:42:51;;;;;;;;;7.20;7.20;;;;;33.70;26.78;101292.06;6218881;22;44595;-89
2022/08/11 13:45:18;;;;;;;;;8.00;8.00;;;;;33.59;26.92;101292.91;6195245;22;44762;-88
2022/08/11 13:47:44;;;;;;;;;9.25;8.00;;;;;34.03;26.85;101292.47;6224115;22;45251;-88
2022/08/11 13:50:12;;;;;;;;;7.80;7.80;;;;;34.40;27.27;101295.69;6224873;22;45250;-90
2022/08/11 13:52:40;;;;;;;;;8.40;8.40;;;;;34.77;26.88;101298.88;6220531;22;44622;-89
2022/08/11 13:55:20;;;;;;;;;8.40;8.40;;;;;34.92;26.33;101309.34;6195351;22;44746;-87
2022/08/11 13:57:52;;;;;;;;;10.25;9.25;;;;;35.29;26.04;101291.16;6194057;22;44827;-89
2022/08/11 14:00:19;;;;;;;;;8.00;8.00;;;;;35.70;25.99;101299.22;6225808;22;45358;-89
2022/08/11 14:02:48;;;;;;;;;8.00;8.00;;;;;35.41;25.07;101301.28;6224778;22;44821;-89
2022/08/11 14:05:16;;;;;;;;;5.20;5.20;;;;;35.79;25.07;101297.69;6194184;22;44680;-89
2022/08/11 14:07:52;;;;;;;;;10.25;9.00;;;;;36.10;24.10;101298.09;6224730;22;44827;-90
2022/08/11 14:10:27;;;;;;;;;7.80;7.80;;;;;36.01;23.89;101297.72;6225463;22;45111;-89
2022/08/11 14:15:45;;;;;;;;;7.00;7.00;;;;;35.80;24.28;101285.53;6223843;22;44617;-89
2022/08/11 14:18:18;;;;;;;;;7.75;7.75;;;;;35.81;25.15;101281.66;6222536;22;44763;-87
2022/08/11 14:23:38;;;;;;;;;9.20;7.80;;;;;36.71;24.93;101274.66;6219721;22;44745;-90
2022/08/11 14:26:25;;;;;;;;;9.25;8.50;;;;;37.23;23.40;101281.44;6192973;22;45225;-88
2022/08/11 14:28:59;;;;;;;;;7.75;7.75;;;;;37.16;22.97;101272.53;6225771;22;44708;-88
2022/08/11 14:31:27;;;;;;;;;7.00;5.25;;;;;36.86;23.08;101262.88;6197798;22;46563;-89
2022/08/11 14:34:01;;;;;;;;;8.20;8.20;;;;;36.74;23.34;101270.50;6195345;22;44755;-87
2022/08/11 14:36:29;;;;;;;;;6.00;6.00;;;;;36.90;23.20;101261.28;6217437;22;44667;-85
2022/08/11 14:38:55;;;;;;;;;9.00;9.00;;;;;37.12;22.80;101255.59;6217283;22;44717;-90
2022/08/11 14:47:05;;;;;;;;;8.40;8.40;;;;;38.05;21.91;101253.03;6216233;22;44621;-89
2022/08/11 14:49:35;;;;;;;;;8.75;7.75;;;;;38.59;21.72;101251.75;6215934;22;44739;-89
2022/08/11 14:52:06;;;;;;;;;9.75;9.75;;;;;39.05;20.96;101251.72;6188913;22;45285;-90
2022/08/11 14:57:18;;;;;;;;;9.50;8.50;;;;;39.69;20.88;101245.44;6224362;22;44661;-90
2022/08/11 14:59:48;;;;;;;;;9.00;9.00;;;;;39.90;20.08;101237.00;6222093;22;44812;-90
2022/08/11 15:05:01;;;;;;;;;9.00;9.00;;;;;39.78;21.32;101240.13;6217459;22;44604;-89
2022/08/11 15:07:30;;;;;;;;;10.20;10.20;;;;;39.96;20.91;101242.25;6219080;22;44721;-90
2022/08/11 15:09:58;;;;;;;;;6.75;6.75;;;;;39.24;20.53;101235.31;6222408;22;44790;-90
2022/08/11 15:12:24;;;;;;;;;6.00;4.50;;;;;38.73;20.23;101202.84;6194814;22;45240;-90
2022/08/11 15:17:37;;;;;;;;;10.60;8.60;;;;;39.34;20.36;101221.38;6228184;22;45165;-89
2022/08/11 15:25:37;;;;;;;;;8.40;8.40;;;;;39.58;19.98;101210.41;6226161;22;44662;-89
2022/08/11 15:39:19;;;;;;;;;7.20;7.00;;;;;39.27;19.88;101220.84;6230302;22;44544;-90
2022/08/11 15:47:35;;;;;;;;;8.20;8.20;;;;;39.52;19.52;101215.19;6220791;22;44632;-91
2022/08/11 15:50:04;;;;;;;;;7.80;7.80;;;;;39.56;19.78;101204.31;6193641;22;44636;-91
2022/08/11 15:52:33;;;;;;;;;9.50;9.50;;;;;40.11;20.90;101195.97;6222071;22;44854;-91
2022/08/11 15:55:04;;;;;;;;;13.50;10.00;;;;;40.38;19.08;101201.91;6224658;22;45197;-90
2022/08/11 16:05:49;;;;;;;;;8.25;8.25;;;;;38.87;20.11;101197.56;6220348;22;44935;-91
2022/08/11 16:08:18;;;;;;;;;10.80;10.00;;;;;38.90;19.70;101194.22;6193141;22;44768;-89
2022/08/11 16:10:46;;;;;;;;;9.40;9.40;;;;;38.96;19.96;101200.59;6195488;22;45395;-91
2022/08/11 16:18:43;;;;;;;;;10.40;9.00;;;;;38.40;20.14;101186.75;6235376;22;44741;-87
2022/08/11 16:21:18;;;;;;;;;5.25;4.25;;;;;38.37;20.30;101199.25;6234422;22;44753;-88
2022/08/11 16:23:46;;;;;;;;;9.50;9.50;;;;;39.09;20.91;101197.22;6228106;22;44759;-89
2022/08/11 16:26:16;;;;;;;;;8.00;8.00;;;;;39.68;19.79;101196.47;6232391;22;45180;-89
2022/08/11 16:28:43;;;;;;;;;10.60;8.60;;;;;39.92;19.61;101195.78;6240526;22;44631;-88
2022/08/11 16:31:11;;;;;;;;;8.40;7.00;;;;;39.72;18.71;101191.19;6240375;22;44606;-88
2022/08/11 16:33:39;;;;;;;;;8.25;8.25;;;;;39.78;18.75;101193.63;6213629;22;44890;-92
2022/08/11 16:38:55;;;;;;;;;7.20;7.20;;;;;38.72;20.40;101192.00;6241554;22;44619;-89
2022/08/11 16:46:59;;;;;;;;;11.50;9.50;;;;;40.20;19.09;101177.53;6225886;22;45537;-89
2022/08/11 16:49:34;;;;;;;;;10.60;10.20;;;;;40.20;19.50;101164.44;6192055;22;45265;-88
2022/08/11 16:52:02;;;;;;;;;12.25;9.50;;;;;39.90;19.34;101162.69;6223104;22;45303;-88
2022/08/11 16:54:30;;;;;;;;;10.00;10.00;;;;;40.16;19.28;101168.91;6195404;22;45120;-88
2022/08/11 16:59:12;;;;;;;;;8.75;8.75;;;;;39.90;19.02;101167.44;6226015;22;45199;-89